sensor_id;sensor_type;location;lat;lon;timestamp;temperature;humidity
71096;DHT22;58753;49.440;11.126;2022-11-20T00:01:06;0.12;98.21
71096;DHT22;58753;49.440;11.126;2022-11-20T00:03:31;0.14;98.42
71096;DHT22;58753;49.440;11.126;2022-11-20T00:06:05;0.14;98.25
71096;DHT22;58753;49.440;11.126;2022-11-20T00:08:30;0.15;98.62
71096;DHT22;58753;49.440;11.126;2022-11-20T00:10:56;0.10;97.66
71096;DHT22;58753;49.440;11.126;2022-11-20T00:13:21;0.14;98.13
71096;DHT22;58753;49.440;11.126;2022-11-20T00:15:47;0.10;97.75
71096;DHT22;58753;49.440;11.126;2022-11-20T00:18:12;0.14;98.18
71096;DHT22;58753;49.440;11.126;2022-11-20T00:20:37;0.15;98.41
71096;DHT22;58753;49.440;11.126;2022-11-20T00:23:03;0.15;98.43
71096;DHT22;58753;49.440;11.126;2022-11-20T00:25:28;0.15;97.74
71096;DHT22;58753;49.440;11.126;2022-11-20T00:27:54;0.14;97.70
71096;DHT22;58753;49.440;11.126;2022-11-20T00:30:19;0.17;98.19
71096;DHT22;58753;49.440;11.126;2022-11-20T00:32:44;0.17;98.14
71096;DHT22;58753;49.440;11.126;2022-11-20T00:35:10;0.18;98.45
71096;DHT22;58753;49.440;11.126;2022-11-20T00:37:35;0.15;98.32
71096;DHT22;58753;49.440;11.126;2022-11-20T00:40:00;0.15;97.74
71096;DHT22;58753;49.440;11.126;2022-11-20T00:42:26;0.15;97.99
71096;DHT22;58753;49.440;11.126;2022-11-20T00:44:51;0.07;97.70
71096;DHT22;58753;49.440;11.126;2022-11-20T00:47:17;0.12;98.47
71096;DHT22;58753;49.440;11.126;2022-11-20T00:49:42;0.10;98.32
71096;DHT22;58753;49.440;11.126;2022-11-20T00:52:07;0.07;99.09
71096;DHT22;58753;49.440;11.126;2022-11-20T00:54:33;0.14;98.81
71096;DHT22;58753;49.440;11.126;2022-11-20T00:56:58;0.19;98.65
71096;DHT22;58753;49.440;11.126;2022-11-20T00:59:23;0.25;98.77
71096;DHT22;58753;49.440;11.126;2022-11-20T01:01:49;0.22;98.75
71096;DHT22;58753;49.440;11.126;2022-11-20T01:04:14;0.26;98.43
71096;DHT22;58753;49.440;11.126;2022-11-20T01:06:40;0.25;98.40
71096;DHT22;58753;49.440;11.126;2022-11-20T01:09:07;0.17;97.67
71096;DHT22;58753;49.440;11.126;2022-11-20T01:11:36;0.21;98.88
71096;DHT22;58753;49.440;11.126;2022-11-20T01:14:03;0.12;98.34
71096;DHT22;58753;49.440;11.126;2022-11-20T01:16:32;0.14;98.44
71096;DHT22;58753;49.440;11.126;2022-11-20T01:18:59;0.12;97.97
71096;DHT22;58753;49.440;11.126;2022-11-20T01:21:34;0.18;98.72
71096;DHT22;58753;49.440;11.126;2022-11-20T01:24:00;0.21;98.21
71096;DHT22;58753;49.440;11.126;2022-11-20T01:26:28;0.17;98.27
71096;DHT22;58753;49.440;11.126;2022-11-20T01:28:55;0.15;98.36
71096;DHT22;58753;49.440;11.126;2022-11-20T01:31:26;0.17;98.72
71096;DHT22;58753;49.440;11.126;2022-11-20T01:33:54;0.24;99.09
71096;DHT22;58753;49.440;11.126;2022-11-20T01:36:21;0.15;98.64
71096;DHT22;58753;49.440;11.126;2022-11-20T01:38:47;0.29;98.90
71096;DHT22;58753;49.440;11.126;2022-11-20T01:41:13;0.34;99.04
71096;DHT22;58753;49.440;11.126;2022-11-20T01:43:59;0.34;98.93
71096;DHT22;58753;49.440;11.126;2022-11-20T01:46:24;0.32;98.67
71096;DHT22;58753;49.440;11.126;2022-11-20T01:49:06;0.17;98.31
71096;DHT22;58753;49.440;11.126;2022-11-20T01:51:39;0.29;98.84
71096;DHT22;58753;49.440;11.126;2022-11-20T01:54:11;0.26;98.64
71096;DHT22;58753;49.440;11.126;2022-11-20T01:56:41;0.24;98.79
71096;DHT22;58753;49.440;11.126;2022-11-20T01:59:09;0.28;99.07
71096;DHT22;58753;49.440;11.126;2022-11-20T02:01:35;0.35;99.28
71096;DHT22;58753;49.440;11.126;2022-11-20T02:04:01;0.34;99.00
71096;DHT22;58753;49.440;11.126;2022-11-20T02:06:29;0.35;98.92
71096;DHT22;58753;49.440;11.126;2022-11-20T02:08:56;0.40;99.20
71096;DHT22;58753;49.440;11.126;2022-11-20T02:11:21;0.37;99.19
71096;DHT22;58753;49.440;11.126;2022-11-20T02:13:47;0.38;99.17
71096;DHT22;58753;49.440;11.126;2022-11-20T02:18:55;0.42;99.00
71096;DHT22;58753;49.440;11.126;2022-11-20T02:21:37;0.44;99.07
71096;DHT22;58753;49.440;11.126;2022-11-20T02:26:35;0.42;99.18
71096;DHT22;58753;49.440;11.126;2022-11-20T02:29:02;0.37;98.78
71096;DHT22;58753;49.440;11.126;2022-11-20T02:31:28;0.29;98.36
71096;DHT22;58753;49.440;11.126;2022-11-20T02:33:55;0.31;98.89
71096;DHT22;58753;49.440;11.126;2022-11-20T02:36:21;0.35;99.14
71096;DHT22;58753;49.440;11.126;2022-11-20T02:38:47;0.35;99.36
71096;DHT22;58753;49.440;11.126;2022-11-20T02:41:14;0.40;99.31
71096;DHT22;58753;49.440;11.126;2022-11-20T02:43:39;0.40;99.31
71096;DHT22;58753;49.440;11.126;2022-11-20T02:46:07;0.45;99.38
71096;DHT22;58753;49.440;11.126;2022-11-20T02:48:33;0.48;99.39
71096;DHT22;58753;49.440;11.126;2022-11-20T02:50:58;0.49;99.16
71096;DHT22;58753;49.440;11.126;2022-11-20T02:53:24;0.48;99.41
71096;DHT22;58753;49.440;11.126;2022-11-20T02:55:49;0.48;99.19
71096;DHT22;58753;49.440;11.126;2022-11-20T02:58:14;0.41;98.83
71096;DHT22;58753;49.440;11.126;2022-11-20T03:00:40;0.45;99.34
71096;DHT22;58753;49.440;11.126;2022-11-20T03:03:05;0.48;99.31
71096;DHT22;58753;49.440;11.126;2022-11-20T03:05:30;0.52;99.29
71096;DHT22;58753;49.440;11.126;2022-11-20T03:07:56;0.52;99.50
71096;DHT22;58753;49.440;11.126;2022-11-20T03:10:21;0.53;99.25
71096;DHT22;58753;49.440;11.126;2022-11-20T03:12:46;0.53;99.27
71096;DHT22;58753;49.440;11.126;2022-11-20T03:15:12;0.51;99.11
71096;DHT22;58753;49.440;11.126;2022-11-20T03:17:37;0.52;99.22
71096;DHT22;58753;49.440;11.126;2022-11-20T03:20:03;0.55;99.30
71096;DHT22;58753;49.440;11.126;2022-11-20T03:22:29;0.59;99.27
71096;DHT22;58753;49.440;11.126;2022-11-20T03:24:55;0.58;99.18
71096;DHT22;58753;49.440;11.126;2022-11-20T03:27:20;0.55;99.15
71096;DHT22;58753;49.440;11.126;2022-11-20T03:29:46;0.49;98.98
71096;DHT22;58753;49.440;11.126;2022-11-20T03:32:11;0.42;99.12
71096;DHT22;58753;49.440;11.126;2022-11-20T03:34:36;0.44;99.23
71096;DHT22;58753;49.440;11.126;2022-11-20T03:37:02;0.40;99.29
71096;DHT22;58753;49.440;11.126;2022-11-20T03:39:27;0.38;99.45
71096;DHT22;58753;49.440;11.126;2022-11-20T03:41:52;0.38;99.38
71096;DHT22;58753;49.440;11.126;2022-11-20T03:44:21;0.38;99.42
71096;DHT22;58753;49.440;11.126;2022-11-20T03:46:46;0.37;99.23
71096;DHT22;58753;49.440;11.126;2022-11-20T03:49:12;0.37;99.30
71096;DHT22;58753;49.440;11.126;2022-11-20T03:51:37;0.40;99.35
71096;DHT22;58753;49.440;11.126;2022-11-20T03:54:05;0.40;99.33
71096;DHT22;58753;49.440;11.126;2022-11-20T03:56:34;0.38;99.38
71096;DHT22;58753;49.440;11.126;2022-11-20T03:59:00;0.40;99.53
71096;DHT22;58753;49.440;11.126;2022-11-20T04:01:27;0.37;99.48
71096;DHT22;58753;49.440;11.126;2022-11-20T04:03:55;0.41;99.47
71096;DHT22;58753;49.440;11.126;2022-11-20T04:06:25;0.40;99.63
71096;DHT22;58753;49.440;11.126;2022-11-20T04:08:53;0.41;99.63
71096;DHT22;58753;49.440;11.126;2022-11-20T04:11:30;0.41;99.51
71096;DHT22;58753;49.440;11.126;2022-11-20T04:13:57;0.38;99.82
71096;DHT22;58753;49.440;11.126;2022-11-20T04:16:24;0.38;99.63
71096;DHT22;58753;49.440;11.126;2022-11-20T04:18:54;0.40;99.64
71096;DHT22;58753;49.440;11.126;2022-11-20T04:21:20;0.40;99.61
71096;DHT22;58753;49.440;11.126;2022-11-20T04:23:46;0.37;99.74
71096;DHT22;58753;49.440;11.126;2022-11-20T04:26:11;0.38;99.76
71096;DHT22;58753;49.440;11.126;2022-11-20T04:28:37;0.38;99.77
71096;DHT22;58753;49.440;11.126;2022-11-20T04:31:14;0.38;99.85
71096;DHT22;58753;49.440;11.126;2022-11-20T04:33:40;0.35;99.81
71096;DHT22;58753;49.440;11.126;2022-11-20T04:36:07;0.34;99.87
71096;DHT22;58753;49.440;11.126;2022-11-20T04:38:35;0.26;99.74
71096;DHT22;58753;49.440;11.126;2022-11-20T04:41:03;0.32;99.92
71096;DHT22;58753;49.440;11.126;2022-11-20T04:43:29;0.31;99.90
71096;DHT22;58753;49.440;11.126;2022-11-20T04:45:55;0.34;99.91
71096;DHT22;58753;49.440;11.126;2022-11-20T04:48:22;0.35;99.86
71096;DHT22;58753;49.440;11.126;2022-11-20T04:50:47;0.37;99.79
71096;DHT22;58753;49.440;11.126;2022-11-20T04:53:13;0.38;99.91
71096;DHT22;58753;49.440;11.126;2022-11-20T04:55:39;0.28;99.74
71096;DHT22;58753;49.440;11.126;2022-11-20T04:58:04;0.35;99.97
71096;DHT22;58753;49.440;11.126;2022-11-20T05:00:30;0.34;99.99
71096;DHT22;58753;49.440;11.126;2022-11-20T05:02:55;0.35;99.99
71096;DHT22;58753;49.440;11.126;2022-11-20T05:05:20;0.40;99.99
71096;DHT22;58753;49.440;11.126;2022-11-20T05:07:46;0.34;99.79
71096;DHT22;58753;49.440;11.126;2022-11-20T05:10:11;0.29;99.87
71096;DHT22;58753;49.440;11.126;2022-11-20T05:12:36;0.31;99.99
71096;DHT22;58753;49.440;11.126;2022-11-20T05:15:02;0.26;99.99
71096;DHT22;58753;49.440;11.126;2022-11-20T05:17:27;0.29;99.99
71096;DHT22;58753;49.440;11.126;2022-11-20T05:19:52;0.37;99.99
71096;DHT22;58753;49.440;11.126;2022-11-20T05:22:18;0.31;99.99
71096;DHT22;58753;49.440;11.126;2022-11-20T05:24:43;0.31;99.99
71096;DHT22;58753;49.440;11.126;2022-11-20T05:27:08;0.32;99.99
71096;DHT22;58753;49.440;11.126;2022-11-20T05:29:34;0.29;99.96
71096;DHT22;58753;49.440;11.126;2022-11-20T05:31:59;0.34;99.99
71096;DHT22;58753;49.440;11.126;2022-11-20T05:34:24;0.35;99.99
71096;DHT22;58753;49.440;11.126;2022-11-20T05:36:50;0.32;99.99
71096;DHT22;58753;49.440;11.126;2022-11-20T05:39:15;0.35;99.99
71096;DHT22;58753;49.440;11.126;2022-11-20T05:41:40;0.37;99.99
71096;DHT22;58753;49.440;11.126;2022-11-20T05:44:06;0.35;99.99
71096;DHT22;58753;49.440;11.126;2022-11-20T05:46:31;0.38;99.99
71096;DHT22;58753;49.440;11.126;2022-11-20T05:48:57;0.40;99.99
71096;DHT22;58753;49.440;11.126;2022-11-20T05:51:24;0.41;99.99
71096;DHT22;58753;49.440;11.126;2022-11-20T05:53:49;0.45;99.99
71096;DHT22;58753;49.440;11.126;2022-11-20T05:56:17;0.45;99.99
71096;DHT22;58753;49.440;11.126;2022-11-20T05:58:43;0.46;99.99
71096;DHT22;58753;49.440;11.126;2022-11-20T06:01:12;0.44;99.99
71096;DHT22;58753;49.440;11.126;2022-11-20T06:03:39;0.38;99.99
71096;DHT22;58753;49.440;11.126;2022-11-20T06:06:05;0.44;99.99
71096;DHT22;58753;49.440;11.126;2022-11-20T06:08:31;0.42;99.99
71096;DHT22;58753;49.440;11.126;2022-11-20T06:10:57;0.46;99.99
71096;DHT22;58753;49.440;11.126;2022-11-20T06:13:22;0.48;99.99
71096;DHT22;58753;49.440;11.126;2022-11-20T06:15:49;0.48;99.99
71096;DHT22;58753;49.440;11.126;2022-11-20T06:18:14;0.48;99.99
71096;DHT22;58753;49.440;11.126;2022-11-20T06:20:40;0.55;99.99
71096;DHT22;58753;49.440;11.126;2022-11-20T06:23:05;0.53;99.99
71096;DHT22;58753;49.440;11.126;2022-11-20T06:25:30;0.53;99.99
71096;DHT22;58753;49.440;11.126;2022-11-20T06:27:56;0.46;99.99
71096;DHT22;58753;49.440;11.126;2022-11-20T06:30:21;0.51;99.99
71096;DHT22;58753;49.440;11.126;2022-11-20T06:32:47;0.51;99.99
71096;DHT22;58753;49.440;11.126;2022-11-20T06:35:12;0.55;99.99
71096;DHT22;58753;49.440;11.126;2022-11-20T06:37:37;0.51;99.99
71096;DHT22;58753;49.440;11.126;2022-11-20T06:40:03;0.56;99.99
71096;DHT22;58753;49.440;11.126;2022-11-20T06:42:29;0.53;99.99
71096;DHT22;58753;49.440;11.126;2022-11-20T06:44:54;0.55;99.99
71096;DHT22;58753;49.440;11.126;2022-11-20T06:47:19;0.52;99.99
71096;DHT22;58753;49.440;11.126;2022-11-20T06:49:45;0.52;99.99
71096;DHT22;58753;49.440;11.126;2022-11-20T06:52:10;0.53;99.99
71096;DHT22;58753;49.440;11.126;2022-11-20T06:54:35;0.52;99.99
71096;DHT22;58753;49.440;11.126;2022-11-20T06:57:01;0.55;99.99
71096;DHT22;58753;49.440;11.126;2022-11-20T06:59:26;0.55;99.99
71096;DHT22;58753;49.440;11.126;2022-11-20T07:01:52;0.53;99.99
71096;DHT22;58753;49.440;11.126;2022-11-20T07:04:17;0.62;99.99
71096;DHT22;58753;49.440;11.126;2022-11-20T07:06:42;0.66;99.99
71096;DHT22;58753;49.440;11.126;2022-11-20T07:09:09;0.68;99.99
71096;DHT22;58753;49.440;11.126;2022-11-20T07:11:34;0.65;99.99
71096;DHT22;58753;49.440;11.126;2022-11-20T07:13:59;0.65;99.99
71096;DHT22;58753;49.440;11.126;2022-11-20T07:16:25;0.66;99.99
71096;DHT22;58753;49.440;11.126;2022-11-20T07:18:50;0.66;99.99
71096;DHT22;58753;49.440;11.126;2022-11-20T07:21:16;0.68;99.99
71096;DHT22;58753;49.440;11.126;2022-11-20T07:23:41;0.73;99.99
71096;DHT22;58753;49.440;11.126;2022-11-20T07:26:08;0.70;99.99
71096;DHT22;58753;49.440;11.126;2022-11-20T07:28:34;0.69;99.92
71096;DHT22;58753;49.440;11.126;2022-11-20T07:31:00;0.63;99.80
71096;DHT22;58753;49.440;11.126;2022-11-20T07:33:25;0.65;99.99
71096;DHT22;58753;49.440;11.126;2022-11-20T07:35:51;0.68;99.99
71096;DHT22;58753;49.440;11.126;2022-11-20T07:38:16;0.62;99.99
71096;DHT22;58753;49.440;11.126;2022-11-20T07:40:42;0.68;99.99
71096;DHT22;58753;49.440;11.126;2022-11-20T07:43:07;0.72;99.99
71096;DHT22;58753;49.440;11.126;2022-11-20T07:45:32;0.70;99.99
71096;DHT22;58753;49.440;11.126;2022-11-20T07:47:58;0.76;99.99
71096;DHT22;58753;49.440;11.126;2022-11-20T07:50:23;0.79;99.99
71096;DHT22;58753;49.440;11.126;2022-11-20T07:52:49;0.76;99.86
71096;DHT22;58753;49.440;11.126;2022-11-20T07:55:14;0.82;99.99
71096;DHT22;58753;49.440;11.126;2022-11-20T07:57:40;0.83;99.99
71096;DHT22;58753;49.440;11.126;2022-11-20T08:00:08;0.79;99.67
71096;DHT22;58753;49.440;11.126;2022-11-20T08:02:40;0.85;99.99
71096;DHT22;58753;49.440;11.126;2022-11-20T08:05:07;0.89;99.95
71096;DHT22;58753;49.440;11.126;2022-11-20T08:07:41;0.92;99.83
71096;DHT22;58753;49.440;11.126;2022-11-20T08:10:08;0.96;99.65
71096;DHT22;58753;49.440;11.126;2022-11-20T08:12:34;0.93;99.68
71096;DHT22;58753;49.440;11.126;2022-11-20T08:15:18;0.86;99.62
71096;DHT22;58753;49.440;11.126;2022-11-20T08:17:44;0.87;99.81
71096;DHT22;58753;49.440;11.126;2022-11-20T08:20:09;0.92;99.99
71096;DHT22;58753;49.440;11.126;2022-11-20T08:22:34;0.92;99.85
71096;DHT22;58753;49.440;11.126;2022-11-20T08:25:00;0.90;99.90
71096;DHT22;58753;49.440;11.126;2022-11-20T08:27:25;0.82;99.41
71096;DHT22;58753;49.440;11.126;2022-11-20T08:29:51;0.85;99.69
71096;DHT22;58753;49.440;11.126;2022-11-20T08:32:17;0.87;99.72
71096;DHT22;58753;49.440;11.126;2022-11-20T08:34:42;0.85;99.84
71096;DHT22;58753;49.440;11.126;2022-11-20T08:37:07;0.89;99.89
71096;DHT22;58753;49.440;11.126;2022-11-20T08:39:33;0.90;99.76
71096;DHT22;58753;49.440;11.126;2022-11-20T08:41:58;0.92;99.88
71096;DHT22;58753;49.440;11.126;2022-11-20T08:44:24;0.92;99.71
71096;DHT22;58753;49.440;11.126;2022-11-20T08:46:49;0.97;99.77
71096;DHT22;58753;49.440;11.126;2022-11-20T08:49:14;1.00;99.22
71096;DHT22;58753;49.440;11.126;2022-11-20T08:51:41;1.03;99.50
71096;DHT22;58753;49.440;11.126;2022-11-20T08:54:08;1.12;99.70
71096;DHT22;58753;49.440;11.126;2022-11-20T08:56:35;1.13;99.78
71096;DHT22;58753;49.440;11.126;2022-11-20T08:59:01;1.13;99.73
71096;DHT22;58753;49.440;11.126;2022-11-20T09:01:27;1.15;99.75
71096;DHT22;58753;49.440;11.126;2022-11-20T09:03:55;1.16;99.69
71096;DHT22;58753;49.440;11.126;2022-11-20T09:06:20;1.13;99.52
71096;DHT22;58753;49.440;11.126;2022-11-20T09:08:46;1.10;99.80
71096;DHT22;58753;49.440;11.126;2022-11-20T09:11:11;1.12;99.57
71096;DHT22;58753;49.440;11.126;2022-11-20T09:13:37;1.15;99.58
71096;DHT22;58753;49.440;11.126;2022-11-20T09:16:05;1.15;99.38
71096;DHT22;58753;49.440;11.126;2022-11-20T09:18:31;1.16;99.48
71096;DHT22;58753;49.440;11.126;2022-11-20T09:21:02;1.17;99.48
71096;DHT22;58753;49.440;11.126;2022-11-20T09:23:31;1.19;99.53
71096;DHT22;58753;49.440;11.126;2022-11-20T09:25:57;1.22;99.31
71096;DHT22;58753;49.440;11.126;2022-11-20T09:28:25;1.22;99.42
71096;DHT22;58753;49.440;11.126;2022-11-20T09:30:51;1.26;99.50
71096;DHT22;58753;49.440;11.126;2022-11-20T09:33:17;1.36;99.50
71096;DHT22;58753;49.440;11.126;2022-11-20T09:35:42;1.40;99.28
71096;DHT22;58753;49.440;11.126;2022-11-20T09:38:09;1.36;99.14
71096;DHT22;58753;49.440;11.126;2022-11-20T09:40:38;1.33;98.84
71096;DHT22;58753;49.440;11.126;2022-11-20T09:46:21;1.46;99.12
71096;DHT22;58753;49.440;11.126;2022-11-20T09:54:21;1.38;99.16
71096;DHT22;58753;49.440;11.126;2022-11-20T09:56:53;1.48;99.47
71096;DHT22;58753;49.440;11.126;2022-11-20T09:59:33;1.54;99.38
71096;DHT22;58753;49.440;11.126;2022-11-20T10:02:02;1.57;99.36
71096;DHT22;58753;49.440;11.126;2022-11-20T10:04:32;1.68;99.22
71096;DHT22;58753;49.440;11.126;2022-11-20T10:09:34;1.61;99.09
71096;DHT22;58753;49.440;11.126;2022-11-20T10:12:47;1.55;99.27
71096;DHT22;58753;49.440;11.126;2022-11-20T10:15:23;1.62;99.37
71096;DHT22;58753;49.440;11.126;2022-11-20T10:18:09;1.64;99.34
71096;DHT22;58753;49.440;11.126;2022-11-20T10:23:59;1.69;99.31
71096;DHT22;58753;49.440;11.126;2022-11-20T10:26:57;1.77;99.26
71096;DHT22;58753;49.440;11.126;2022-11-20T10:29:35;1.85;99.43
71096;DHT22;58753;49.440;11.126;2022-11-20T10:32:23;1.81;99.33
71096;DHT22;58753;49.440;11.126;2022-11-20T10:35:28;1.78;99.30
71096;DHT22;58753;49.440;11.126;2022-11-20T10:38:02;1.78;99.31
71096;DHT22;58753;49.440;11.126;2022-11-20T10:40:48;1.81;99.01
71096;DHT22;58753;49.440;11.126;2022-11-20T10:43:32;1.85;99.38
71096;DHT22;58753;49.440;11.126;2022-11-20T10:46:03;1.82;99.25
71096;DHT22;58753;49.440;11.126;2022-11-20T10:48:31;1.88;99.16
71096;DHT22;58753;49.440;11.126;2022-11-20T10:54:18;1.98;99.12
71096;DHT22;58753;49.440;11.126;2022-11-20T10:56:51;1.91;98.82
71096;DHT22;58753;49.440;11.126;2022-11-20T11:02:00;1.91;98.90
71096;DHT22;58753;49.440;11.126;2022-11-20T11:04:33;1.89;99.16
71096;DHT22;58753;49.440;11.126;2022-11-20T11:07:10;1.95;99.24
71096;DHT22;58753;49.440;11.126;2022-11-20T11:09:41;1.94;99.12
71096;DHT22;58753;49.440;11.126;2022-11-20T11:12:08;1.95;99.12
71096;DHT22;58753;49.440;11.126;2022-11-20T11:14:54;2.09;98.83
71096;DHT22;58753;49.440;11.126;2022-11-20T11:22:32;2.28;99.22
71096;DHT22;58753;49.440;11.126;2022-11-20T11:24:58;2.40;99.20
71096;DHT22;58753;49.440;11.126;2022-11-20T11:27:24;2.47;99.16
71096;DHT22;58753;49.440;11.126;2022-11-20T11:29:49;2.47;98.95
71096;DHT22;58753;49.440;11.126;2022-11-20T11:32:18;2.40;99.10
71096;DHT22;58753;49.440;11.126;2022-11-20T11:35:02;2.23;98.31
71096;DHT22;58753;49.440;11.126;2022-11-20T11:37:33;2.49;97.29
71096;DHT22;58753;49.440;11.126;2022-11-20T11:40:00;2.52;97.59
71096;DHT22;58753;49.440;11.126;2022-11-20T11:42:27;2.40;98.17
71096;DHT22;58753;49.440;11.126;2022-11-20T11:44:54;2.39;98.94
71096;DHT22;58753;49.440;11.126;2022-11-20T11:47:37;2.43;98.97
71096;DHT22;58753;49.440;11.126;2022-11-20T11:55:17;2.50;98.08
71096;DHT22;58753;49.440;11.126;2022-11-20T11:57:53;2.57;99.14
71096;DHT22;58753;49.440;11.126;2022-11-20T12:00:21;2.60;98.38
71096;DHT22;58753;49.440;11.126;2022-11-20T12:05:20;2.60;99.00
71096;DHT22;58753;49.440;11.126;2022-11-20T12:07:51;2.76;98.98
71096;DHT22;58753;49.440;11.126;2022-11-20T12:10:23;2.85;98.97
71096;DHT22;58753;49.440;11.126;2022-11-20T12:12:55;2.93;99.06
71096;DHT22;58753;49.440;11.126;2022-11-20T12:15:29;2.87;99.11
71096;DHT22;58753;49.440;11.126;2022-11-20T12:17:55;2.88;99.19
71096;DHT22;58753;49.440;11.126;2022-11-20T12:20:26;2.88;99.07
71096;DHT22;58753;49.440;11.126;2022-11-20T12:23:04;2.88;99.13
71096;DHT22;58753;49.440;11.126;2022-11-20T12:25:34;2.88;98.96
71096;DHT22;58753;49.440;11.126;2022-11-20T12:36:48;2.85;97.69
71096;DHT22;58753;49.440;11.126;2022-11-20T12:39:35;2.87;98.05
71096;DHT22;58753;49.440;11.126;2022-11-20T12:53:12;3.08;96.06
71096;DHT22;58753;49.440;11.126;2022-11-20T12:58:41;3.04;96.74
71096;DHT22;58753;49.440;11.126;2022-11-20T13:01:24;3.04;97.19
71096;DHT22;58753;49.440;11.126;2022-11-20T13:06:48;3.08;97.72
71096;DHT22;58753;49.440;11.126;2022-11-20T13:09:17;3.07;98.17
71096;DHT22;58753;49.440;11.126;2022-11-20T13:17:24;3.08;97.32
71096;DHT22;58753;49.440;11.126;2022-11-20T13:19:56;3.08;97.85
71096;DHT22;58753;49.440;11.126;2022-11-20T13:22:44;3.11;98.69
71096;DHT22;58753;49.440;11.126;2022-11-20T13:25:42;3.08;97.71
71096;DHT22;58753;49.440;11.126;2022-11-20T13:30:37;3.08;97.58
71096;DHT22;58753;49.440;11.126;2022-11-20T13:33:33;3.09;97.40
71096;DHT22;58753;49.440;11.126;2022-11-20T13:36:06;3.08;98.20
71096;DHT22;58753;49.440;11.126;2022-11-20T13:38:47;3.04;98.54
71096;DHT22;58753;49.440;11.126;2022-11-20T13:41:24;3.09;97.70
71096;DHT22;58753;49.440;11.126;2022-11-20T13:43:54;3.05;98.74
71096;DHT22;58753;49.440;11.126;2022-11-20T13:46:22;3.07;99.04
71096;DHT22;58753;49.440;11.126;2022-11-20T13:48:50;3.12;97.61
71096;DHT22;58753;49.440;11.126;2022-11-20T13:54:26;3.08;98.86
71096;DHT22;58753;49.440;11.126;2022-11-20T14:00:00;3.12;99.23
71096;DHT22;58753;49.440;11.126;2022-11-20T14:02:28;3.11;98.83
71096;DHT22;58753;49.440;11.126;2022-11-20T14:04:57;3.12;99.20
71096;DHT22;58753;49.440;11.126;2022-11-20T14:07:37;3.12;99.22
71096;DHT22;58753;49.440;11.126;2022-11-20T14:10:03;3.19;97.82
71096;DHT22;58753;49.440;11.126;2022-11-20T14:12:31;3.17;98.54
71096;DHT22;58753;49.440;11.126;2022-11-20T14:14:57;3.19;99.12
71096;DHT22;58753;49.440;11.126;2022-11-20T14:17:32;3.21;99.34
71096;DHT22;58753;49.440;11.126;2022-11-20T14:20:21;3.18;99.56
71096;DHT22;58753;49.440;11.126;2022-11-20T14:22:54;3.21;98.30
71096;DHT22;58753;49.440;11.126;2022-11-20T14:25:20;3.21;98.91
71096;DHT22;58753;49.440;11.126;2022-11-20T14:28:02;3.21;99.32
71096;DHT22;58753;49.440;11.126;2022-11-20T14:30:43;3.24;98.12
71096;DHT22;58753;49.440;11.126;2022-11-20T14:33:10;3.24;98.03
71096;DHT22;58753;49.440;11.126;2022-11-20T14:35:44;3.24;98.29
71096;DHT22;58753;49.440;11.126;2022-11-20T14:38:12;3.21;98.98
71096;DHT22;58753;49.440;11.126;2022-11-20T14:40:38;3.18;99.00
71096;DHT22;58753;49.440;11.126;2022-11-20T14:43:28;3.19;98.33
71096;DHT22;58753;49.440;11.126;2022-11-20T14:46:11;3.19;98.73
71096;DHT22;58753;49.440;11.126;2022-11-20T14:48:44;3.15;98.91
71096;DHT22;58753;49.440;11.126;2022-11-20T14:51:12;3.18;97.72
71096;DHT22;58753;49.440;11.126;2022-11-20T14:53:48;3.22;98.34
71096;DHT22;58753;49.440;11.126;2022-11-20T14:56:23;3.22;98.35
71096;DHT22;58753;49.440;11.126;2022-11-20T14:58:58;3.19;98.18
71096;DHT22;58753;49.440;11.126;2022-11-20T15:01:31;3.17;98.45
71096;DHT22;58753;49.440;11.126;2022-11-20T15:04:00;3.14;99.00
71096;DHT22;58753;49.440;11.126;2022-11-20T15:06:26;3.15;98.39
71096;DHT22;58753;49.440;11.126;2022-11-20T15:08:52;3.12;98.55
71096;DHT22;58753;49.440;11.126;2022-11-20T15:11:20;3.14;98.48
71096;DHT22;58753;49.440;11.126;2022-11-20T15:13:48;3.14;99.31
71096;DHT22;58753;49.440;11.126;2022-11-20T15:16:21;3.15;99.37
71096;DHT22;58753;49.440;11.126;2022-11-20T15:18:47;3.14;99.66
71096;DHT22;58753;49.440;11.126;2022-11-20T15:21:15;3.19;98.89
71096;DHT22;58753;49.440;11.126;2022-11-20T15:23:41;3.18;99.52
71096;DHT22;58753;49.440;11.126;2022-11-20T15:26:08;3.17;99.68
71096;DHT22;58753;49.440;11.126;2022-11-20T15:28:37;3.17;99.30
71096;DHT22;58753;49.440;11.126;2022-11-20T15:31:04;3.17;99.50
71096;DHT22;58753;49.440;11.126;2022-11-20T15:33:31;3.17;99.82
71096;DHT22;58753;49.440;11.126;2022-11-20T15:35:56;3.17;99.86
71096;DHT22;58753;49.440;11.126;2022-11-20T15:38:22;3.17;99.78
71096;DHT22;58753;49.440;11.126;2022-11-20T15:40:47;3.18;99.85
71096;DHT22;58753;49.440;11.126;2022-11-20T15:43:12;3.18;99.96
71096;DHT22;58753;49.440;11.126;2022-11-20T15:45:46;3.19;99.88
71096;DHT22;58753;49.440;11.126;2022-11-20T15:48:45;3.22;99.91
71096;DHT22;58753;49.440;11.126;2022-11-20T15:53:50;3.18;99.97
71096;DHT22;58753;49.440;11.126;2022-11-20T15:56:15;3.15;99.99
71096;DHT22;58753;49.440;11.126;2022-11-20T15:58:41;3.09;99.86
71096;DHT22;58753;49.440;11.126;2022-11-20T16:01:11;3.09;99.95
71096;DHT22;58753;49.440;11.126;2022-11-20T16:03:37;3.05;99.88
71096;DHT22;58753;49.440;11.126;2022-11-20T16:06:02;3.07;99.96
71096;DHT22;58753;49.440;11.126;2022-11-20T16:08:28;3.03;99.94
71096;DHT22;58753;49.440;11.126;2022-11-20T16:10:53;3.00;99.99
71096;DHT22;58753;49.440;11.126;2022-11-20T16:13:18;3.00;99.95
71096;DHT22;58753;49.440;11.126;2022-11-20T16:16:08;2.95;99.99
71096;DHT22;58753;49.440;11.126;2022-11-20T16:18:37;2.95;99.93
71096;DHT22;58753;49.440;11.126;2022-11-20T16:21:02;2.91;99.99
71096;DHT22;58753;49.440;11.126;2022-11-20T16:23:28;2.91;99.99
71096;DHT22;58753;49.440;11.126;2022-11-20T16:25:53;2.87;99.99
71096;DHT22;58753;49.440;11.126;2022-11-20T16:28:19;2.93;99.99
71096;DHT22;58753;49.440;11.126;2022-11-20T16:30:45;2.91;99.99
71096;DHT22;58753;49.440;11.126;2022-11-20T16:33:15;2.87;99.99
71096;DHT22;58753;49.440;11.126;2022-11-20T16:35:41;2.83;99.99
71096;DHT22;58753;49.440;11.126;2022-11-20T16:38:06;2.77;99.99
71096;DHT22;58753;49.440;11.126;2022-11-20T16:40:32;2.74;99.99
71096;DHT22;58753;49.440;11.126;2022-11-20T16:43:07;2.77;99.99
71096;DHT22;58753;49.440;11.126;2022-11-20T16:45:33;2.72;99.97
71096;DHT22;58753;49.440;11.126;2022-11-20T16:47:58;2.64;99.85
71096;DHT22;58753;49.440;11.126;2022-11-20T16:50:24;2.61;99.83
71096;DHT22;58753;49.440;11.126;2022-11-20T16:52:49;2.60;99.78
71096;DHT22;58753;49.440;11.126;2022-11-20T16:55:14;2.56;99.86
71096;DHT22;58753;49.440;11.126;2022-11-20T16:57:40;2.53;99.92
71096;DHT22;58753;49.440;11.126;2022-11-20T17:00:07;2.54;99.99